createdAt,value
2017-12-13T00:02:28.373Z,0.50
2017-12-13T00:04:58.220Z,0.50
2017-12-13T00:07:28.472Z,0.50
2017-12-13T00:09:57.989Z,0.40
2017-12-13T00:12:27.469Z,0.50
2017-12-13T00:14:56.948Z,0.50
2017-12-13T00:17:27.684Z,0.50
2017-12-13T00:19:56.887Z,0.40
2017-12-13T00:22:33.147Z,0.50
2017-12-13T00:25:03.456Z,0.50
2017-12-13T00:27:33.105Z,0.50
2017-12-13T00:30:02.615Z,0.60
2017-12-13T00:32:32.093Z,0.60
2017-12-13T00:35:01.931Z,0.50
2017-12-13T00:37:31.404Z,0.60
2017-12-13T00:40:00.914Z,0.60
2017-12-13T00:42:30.420Z,0.60
2017-12-13T00:45:00.033Z,0.60
2017-12-13T00:47:29.529Z,0.60
2017-12-13T00:49:59.421Z,0.60
2017-12-13T00:52:29.674Z,0.60
2017-12-13T00:54:59.177Z,0.60
2017-12-13T00:57:28.664Z,0.60
2017-12-13T00:59:58.153Z,0.60
2017-12-13T01:02:28.681Z,0.60
2017-12-13T01:04:57.898Z,0.60
2017-12-13T01:07:27.388Z,0.70
2017-12-13T01:09:57.295Z,0.60
2017-12-13T01:12:27.543Z,0.60
2017-12-13T01:14:57.077Z,0.60
2017-12-13T01:17:26.555Z,0.60
2017-12-13T01:19:56.037Z,0.70
2017-12-13T01:22:25.536Z,0.70
2017-12-13T01:24:55.021Z,0.70
2017-12-13T01:27:25.680Z,0.80
2017-12-13T01:29:55.152Z,0.80
2017-12-13T01:32:25.424Z,0.80
2017-12-13T01:34:54.908Z,0.80
2017-12-13T01:37:24.398Z,0.80
2017-12-13T01:39:54.665Z,0.90
2017-12-13T01:42:24.197Z,0.90
2017-12-13T01:44:53.702Z,1.00
2017-12-13T01:47:23.179Z,1.00
2017-12-13T01:49:52.664Z,1.00
2017-12-13T01:52:21.820Z,1.10
2017-12-13T01:54:51.616Z,1.10
2017-12-13T01:57:21.868Z,1.20
2017-12-13T01:59:51.370Z,1.20
2017-12-13T02:02:20.560Z,1.20
2017-12-13T02:04:49.776Z,1.20
2017-12-13T02:07:19.123Z,1.30
2017-12-13T02:09:48.612Z,1.30
2017-12-13T02:12:18.098Z,1.30
2017-12-13T02:14:47.938Z,1.20
2017-12-13T02:17:17.420Z,1.20
2017-12-13T02:19:46.929Z,1.20
2017-12-13T02:22:16.442Z,1.20
2017-12-13T02:24:45.936Z,1.20
2017-12-13T02:27:15.432Z,1.20
2017-12-13T02:29:45.292Z,1.20
2017-12-13T02:32:14.805Z,1.20
2017-12-13T02:34:44.303Z,1.20
2017-12-13T02:37:13.519Z,1.20
2017-12-13T02:39:43.007Z,1.30
2017-12-13T02:42:12.232Z,1.30
2017-12-13T02:44:42.016Z,1.30
2017-12-13T02:47:11.508Z,1.30
2017-12-13T02:49:41.772Z,1.30
2017-12-13T02:52:11.269Z,1.30
2017-12-13T02:54:40.578Z,1.30
2017-12-13T02:57:10.066Z,1.30
2017-12-13T02:59:38.985Z,1.30
2017-12-13T03:02:08.464Z,1.30
2017-12-13T03:04:37.688Z,1.30
2017-12-13T03:07:07.691Z,1.30
2017-12-13T03:09:37.328Z,1.40
2017-12-13T03:12:07.303Z,1.40
2017-12-13T03:14:36.184Z,1.40
2017-12-13T03:17:05.352Z,1.40
2017-12-13T03:19:35.053Z,1.50
2017-12-13T03:22:04.293Z,1.50
2017-12-13T03:24:33.489Z,1.50
2017-12-13T03:27:03.031Z,1.60
2017-12-13T03:29:32.253Z,1.60
2017-12-13T03:32:01.752Z,1.60
2017-12-13T03:34:31.256Z,1.60
2017-12-13T03:37:00.744Z,1.60
2017-12-13T03:39:29.957Z,1.60
2017-12-13T03:41:59.480Z,1.60
2017-12-13T03:44:28.977Z,1.70
2017-12-13T03:46:58.491Z,1.70
2017-12-13T03:49:28.122Z,1.80
2017-12-13T03:51:58.130Z,1.80
2017-12-13T03:54:27.620Z,1.80
2017-12-13T03:56:57.132Z,1.80
2017-12-13T03:59:26.634Z,1.80
2017-12-13T04:01:56.132Z,1.80
2017-12-13T04:04:25.768Z,1.90
2017-12-13T04:06:54.932Z,1.90
2017-12-13T04:09:24.425Z,1.90
2017-12-13T04:11:53.920Z,1.90
2017-12-13T04:14:23.403Z,1.90
2017-12-13T04:16:52.971Z,2.00
2017-12-13T04:19:22.480Z,2.00
2017-12-13T04:21:51.972Z,2.00
2017-12-13T04:24:21.461Z,2.00
2017-12-13T04:26:50.964Z,2.00
2017-12-13T04:29:20.452Z,2.00
2017-12-13T04:31:49.937Z,2.00
2017-12-13T04:34:19.288Z,2.00
2017-12-13T04:36:48.784Z,2.00
2017-12-13T04:39:18.791Z,2.00
2017-12-13T04:41:48.714Z,2.00
2017-12-13T04:44:18.214Z,2.00
2017-12-13T04:46:47.721Z,2.10
2017-12-13T04:49:17.223Z,2.10
2017-12-13T04:51:46.732Z,2.10
2017-12-13T04:54:16.200Z,2.10
2017-12-13T04:56:46.175Z,2.10
2017-12-13T04:59:16.424Z,2.10
2017-12-13T05:01:45.640Z,2.10
2017-12-13T05:04:15.283Z,2.20
2017-12-13T05:06:44.782Z,2.20
2017-12-13T05:09:14.764Z,2.20
2017-12-13T05:11:43.928Z,2.20
2017-12-13T05:14:13.419Z,2.10
2017-12-13T05:16:43.718Z,2.10
2017-12-13T05:19:13.257Z,2.10
2017-12-13T05:21:42.731Z,2.10
2017-12-13T05:24:12.241Z,2.10
2017-12-13T05:26:41.413Z,2.20
2017-12-13T05:29:10.904Z,2.20
2017-12-13T05:31:40.408Z,2.30
2017-12-13T05:34:10.188Z,2.30
2017-12-13T05:36:39.672Z,2.40
2017-12-13T05:39:09.169Z,2.40
2017-12-13T05:41:39.787Z,2.50
2017-12-13T05:44:10.068Z,2.60
2017-12-13T05:46:39.557Z,2.50
2017-12-13T05:49:09.040Z,2.60
2017-12-13T05:51:38.516Z,2.70
2017-12-13T05:54:08.783Z,2.80
2017-12-13T05:56:38.294Z,2.80
2017-12-13T05:59:07.768Z,2.90
2017-12-13T06:01:37.536Z,2.90
2017-12-13T06:04:07.016Z,3.00
2017-12-13T06:06:36.493Z,3.00
2017-12-13T06:09:06.015Z,3.10
2017-12-13T06:11:35.540Z,3.10
2017-12-13T06:14:05.241Z,3.00
2017-12-13T06:16:35.101Z,3.10
2017-12-13T06:19:04.602Z,3.10
2017-12-13T06:21:36.662Z,3.20
2017-12-13T06:24:06.912Z,3.20
2017-12-13T06:26:39.037Z,3.20
2017-12-13T06:29:08.612Z,3.20
2017-12-13T06:31:38.102Z,3.30
2017-12-13T06:34:07.933Z,3.40
2017-12-13T06:36:37.085Z,3.40
2017-12-13T06:39:06.555Z,3.40
2017-12-13T06:41:36.829Z,3.50
2017-12-13T06:44:05.988Z,3.40
2017-12-13T06:46:36.308Z,3.50
2017-12-13T06:49:06.091Z,3.50
2017-12-13T06:51:35.620Z,3.50
2017-12-13T06:54:05.580Z,3.40
2017-12-13T06:56:35.071Z,3.40
2017-12-13T06:59:04.616Z,3.40
2017-12-13T07:01:34.112Z,3.40
2017-12-13T07:07:02.267Z,3.40
2017-12-13T07:09:31.756Z,3.40
2017-12-13T07:12:02.212Z,3.40
2017-12-13T07:14:32.057Z,3.40
2017-12-13T07:17:02.303Z,3.40
2017-12-13T07:19:32.597Z,3.40
2017-12-13T07:22:02.064Z,3.40
2017-12-13T07:24:31.551Z,3.40
2017-12-13T07:27:00.389Z,3.50
2017-12-13T07:29:29.204Z,3.50
2017-12-13T07:31:58.345Z,3.50
2017-12-13T07:34:27.565Z,3.50
2017-12-13T07:36:57.052Z,3.50
2017-12-13T07:39:26.542Z,3.50
2017-12-13T07:41:56.522Z,3.50
2017-12-13T07:44:26.745Z,3.50
2017-12-13T07:46:56.242Z,3.50
2017-12-13T07:49:25.721Z,3.50
2017-12-13T07:51:55.976Z,3.50
2017-12-13T07:54:25.464Z,3.40
2017-12-13T07:56:54.695Z,3.40
2017-12-13T07:59:24.644Z,3.40
2017-12-13T08:01:54.185Z,3.50
2017-12-13T08:04:24.504Z,3.50
2017-12-13T08:06:53.700Z,3.50
2017-12-13T08:09:23.956Z,3.60
2017-12-13T08:11:53.438Z,3.60
2017-12-13T08:14:22.923Z,3.60
2017-12-13T08:16:53.532Z,3.70
2017-12-13T08:19:22.744Z,3.70
2017-12-13T08:21:52.996Z,3.80
2017-12-13T08:24:22.485Z,3.80
2017-12-13T08:26:51.959Z,3.90
2017-12-13T08:29:22.247Z,3.90
2017-12-13T08:31:51.732Z,3.90
2017-12-13T08:34:21.221Z,3.90
2017-12-13T08:36:50.706Z,4.00
2017-12-13T08:39:20.181Z,4.00
2017-12-13T08:41:49.669Z,4.00
2017-12-13T08:44:19.146Z,4.00
2017-12-13T08:46:48.605Z,4.00
2017-12-13T08:49:18.864Z,4.00
2017-12-13T08:51:48.343Z,4.00
2017-12-13T08:54:17.810Z,4.00
2017-12-13T08:56:47.317Z,4.00
2017-12-13T08:59:16.988Z,4.00
2017-12-13T09:01:45.852Z,4.00
2017-12-13T09:04:15.340Z,4.00
2017-12-13T09:06:44.858Z,4.00
2017-12-13T09:09:14.313Z,4.00
2017-12-13T09:11:43.894Z,4.00
2017-12-13T09:14:13.369Z,4.00
2017-12-13T09:16:42.849Z,4.00
2017-12-13T09:19:13.464Z,4.00
2017-12-13T09:21:42.968Z,4.00
2017-12-13T09:24:13.225Z,4.00
2017-12-13T09:26:42.723Z,4.00
2017-12-13T09:29:12.070Z,3.90
2017-12-13T09:31:41.272Z,4.00
2017-12-13T09:34:10.103Z,3.90
2017-12-13T09:36:39.584Z,3.90
2017-12-13T09:39:10.125Z,3.90
2017-12-13T09:41:39.616Z,3.90
2017-12-13T09:44:08.769Z,3.90
2017-12-13T09:46:38.260Z,4.00
2017-12-13T09:49:07.400Z,4.00
2017-12-13T09:51:36.268Z,4.00
2017-12-13T09:54:05.693Z,4.00
2017-12-13T09:56:35.967Z,4.10
2017-12-13T09:59:05.528Z,4.10
2017-12-13T10:01:35.786Z,4.10
2017-12-13T10:04:05.553Z,4.10
2017-12-13T10:06:35.789Z,4.10
2017-12-13T10:09:04.669Z,4.10
2017-12-13T10:11:34.309Z,4.10
2017-12-13T10:14:03.780Z,4.10
2017-12-13T10:16:34.027Z,4.10
2017-12-13T10:19:03.496Z,4.10
2017-12-13T10:21:33.741Z,4.10
2017-12-13T10:24:03.227Z,4.10
2017-12-13T10:26:33.472Z,4.10
2017-12-13T10:29:02.968Z,4.10
2017-12-13T10:31:32.457Z,4.10
2017-12-13T10:34:02.708Z,4.10
2017-12-13T10:36:31.925Z,4.10
2017-12-13T10:39:01.407Z,4.20
2017-12-13T10:41:30.870Z,4.10
2017-12-13T10:44:01.172Z,4.20
2017-12-13T10:46:30.620Z,4.10
2017-12-13T10:49:00.101Z,4.20
2017-12-13T10:51:30.386Z,4.10
2017-12-13T10:53:59.858Z,4.10
2017-12-13T10:56:28.691Z,4.20
2017-12-13T10:58:58.561Z,4.20
2017-12-13T11:01:27.715Z,4.20
2017-12-13T11:03:58.313Z,4.20
2017-12-13T11:06:27.452Z,4.20
2017-12-13T11:08:56.605Z,4.20
2017-12-13T11:11:26.132Z,4.20
2017-12-13T11:13:56.373Z,4.20
2017-12-13T11:16:25.857Z,4.20
2017-12-13T11:18:56.118Z,4.30
2017-12-13T11:21:25.265Z,4.20
2017-12-13T11:23:54.780Z,4.20
2017-12-13T11:26:25.056Z,4.20
2017-12-13T11:28:54.218Z,4.20
2017-12-13T11:31:23.700Z,4.20
2017-12-13T11:33:53.973Z,4.20
2017-12-13T11:36:23.113Z,4.20
2017-12-13T11:38:52.601Z,4.20
2017-12-13T11:41:22.123Z,4.20
2017-12-13T11:43:52.356Z,4.20
2017-12-13T11:46:21.878Z,4.20
2017-12-13T11:48:51.365Z,4.30
2017-12-13T11:51:20.533Z,4.30
2017-12-13T11:53:50.396Z,4.30
2017-12-13T11:56:19.584Z,4.30
2017-12-13T11:58:49.050Z,4.30
2017-12-13T12:01:19.620Z,4.40
2017-12-13T12:03:49.081Z,4.40
2017-12-13T12:06:19.446Z,4.40
2017-12-13T12:08:49.668Z,4.40
2017-12-13T12:11:19.162Z,4.40
2017-12-13T12:13:48.633Z,4.40
2017-12-13T12:16:18.937Z,4.50
2017-12-13T12:18:49.131Z,4.50
2017-12-13T12:21:18.308Z,4.50
2017-12-13T12:23:47.864Z,4.60
2017-12-13T12:26:17.352Z,4.60
2017-12-13T12:28:46.854Z,4.60
2017-12-13T12:31:16.384Z,4.60
2017-12-13T12:33:46.320Z,4.60
2017-12-13T12:36:15.803Z,4.60
2017-12-13T12:38:46.055Z,4.70
2017-12-13T12:41:15.577Z,4.70
2017-12-13T12:43:45.076Z,4.70
2017-12-13T12:46:14.544Z,4.70
2017-12-13T12:48:44.761Z,4.70
2017-12-13T12:51:15.022Z,4.80
2017-12-13T12:53:44.488Z,4.80
2017-12-13T12:56:13.973Z,4.80
2017-12-13T12:58:43.476Z,4.90
2017-12-13T13:01:13.054Z,4.90
2017-12-13T13:03:42.565Z,4.90
2017-12-13T13:06:12.405Z,5.00
2017-12-13T13:08:42.654Z,5.00
2017-12-13T13:11:12.170Z,5.00
2017-12-13T13:13:42.977Z,5.00
2017-12-13T13:16:12.460Z,5.00
2017-12-13T13:18:40.813Z,5.00
2017-12-13T13:21:09.622Z,5.00
2017-12-13T13:23:39.950Z,5.10
2017-12-13T13:26:10.181Z,5.10
2017-12-13T13:28:40.448Z,5.10
2017-12-13T13:31:09.597Z,5.10
2017-12-13T13:33:39.082Z,5.10
2017-12-13T13:36:09.004Z,5.20
2017-12-13T13:38:39.261Z,5.20
2017-12-13T13:41:08.753Z,5.20
2017-12-13T13:43:38.236Z,5.30
2017-12-13T13:46:07.718Z,5.30
2017-12-13T13:48:36.908Z,5.30
2017-12-13T13:51:06.393Z,5.20
2017-12-13T13:53:35.873Z,5.30
2017-12-13T13:56:05.372Z,5.30
2017-12-13T13:58:34.871Z,5.30
2017-12-13T14:01:04.342Z,5.30
2017-12-13T14:03:34.602Z,5.30
2017-12-13T14:06:04.117Z,5.30
2017-12-13T14:08:33.589Z,5.40
2017-12-13T14:11:03.117Z,5.40
2017-12-13T14:13:32.620Z,5.40
2017-12-13T14:16:02.096Z,5.40
2017-12-13T14:18:31.576Z,5.50
2017-12-13T14:21:01.845Z,5.40
2017-12-13T14:23:31.324Z,5.40
2017-12-13T14:26:00.828Z,5.50
2017-12-13T14:28:30.317Z,5.50
2017-12-13T14:31:00.554Z,5.50
2017-12-13T14:33:30.044Z,5.40
2017-12-13T14:35:59.545Z,5.50
2017-12-13T14:38:29.806Z,5.50
2017-12-13T14:40:59.307Z,5.40
2017-12-13T14:43:28.832Z,5.40
2017-12-13T14:45:58.336Z,5.40
2017-12-13T14:48:28.548Z,5.40
2017-12-13T14:50:58.044Z,5.40
2017-12-13T14:53:27.512Z,5.40
2017-12-13T14:55:57.577Z,5.40
2017-12-13T14:58:27.057Z,5.50
2017-12-13T15:00:56.572Z,5.40
2017-12-13T15:03:26.135Z,5.40
2017-12-13T15:05:55.628Z,5.40
2017-12-13T15:08:25.980Z,5.40
2017-12-13T15:10:56.193Z,5.30
2017-12-13T15:13:25.706Z,5.30
2017-12-13T15:15:56.065Z,5.30
2017-12-13T15:18:25.565Z,5.30
2017-12-13T15:20:55.065Z,5.30
2017-12-13T15:23:24.624Z,5.30
2017-12-13T15:25:54.109Z,5.20
2017-12-13T15:28:24.366Z,5.20
2017-12-13T15:30:53.861Z,5.20
2017-12-13T15:33:23.341Z,5.20
2017-12-13T15:35:53.243Z,5.20
2017-12-13T15:38:23.506Z,5.20
2017-12-13T15:40:53.001Z,5.20
2017-12-13T15:43:22.477Z,5.20
2017-12-13T15:45:52.730Z,5.10
2017-12-13T15:48:22.233Z,5.10
2017-12-13T15:50:51.705Z,5.10
2017-12-13T15:53:20.860Z,5.10
2017-12-13T15:55:50.375Z,5.10
2017-12-13T15:58:20.069Z,5.10
2017-12-13T16:00:49.557Z,5.10
2017-12-13T16:03:19.042Z,5.10
2017-12-13T16:05:48.528Z,5.10
2017-12-13T16:08:18.014Z,5.10
2017-12-13T16:10:48.265Z,5.10
2017-12-13T16:13:17.745Z,5.00
2017-12-13T16:15:47.248Z,5.00
2017-12-13T16:18:17.533Z,5.00
2017-12-13T16:20:47.014Z,5.00
2017-12-13T16:23:16.492Z,5.00
2017-12-13T16:25:46.377Z,5.00
2017-12-13T16:28:16.641Z,5.00
2017-12-13T16:30:45.952Z,5.00
2017-12-13T16:33:15.431Z,5.00
2017-12-13T16:35:45.037Z,5.00
2017-12-13T16:38:14.531Z,5.00
2017-12-13T16:40:44.754Z,5.00
2017-12-13T16:43:14.653Z,4.90
2017-12-13T16:45:45.005Z,5.00
2017-12-13T16:48:15.145Z,5.00
2017-12-13T16:50:44.732Z,5.00
2017-12-13T16:53:14.221Z,5.00
2017-12-13T16:55:44.024Z,5.00
2017-12-13T16:58:13.168Z,5.00
2017-12-13T17:00:42.664Z,5.00
2017-12-13T17:03:12.207Z,5.00
2017-12-13T17:05:42.440Z,5.00
2017-12-13T17:08:11.925Z,5.00
2017-12-13T17:10:42.173Z,5.00
2017-12-13T17:13:11.672Z,5.00
2017-12-13T17:15:40.976Z,5.00
2017-12-13T17:18:10.118Z,5.00
2017-12-13T17:20:39.290Z,5.00
2017-12-13T17:23:08.493Z,5.00
2017-12-13T17:25:37.960Z,5.00
2017-12-13T17:28:07.640Z,5.00
2017-12-13T17:30:37.572Z,5.00
2017-12-13T17:33:07.060Z,4.90
2017-12-13T17:35:36.989Z,4.90
2017-12-13T17:38:06.150Z,4.90
2017-12-13T17:40:35.624Z,4.90
2017-12-13T17:43:07.840Z,5.00
2017-12-13T17:45:38.100Z,5.00
2017-12-13T17:48:07.273Z,4.90
2017-12-13T17:50:36.755Z,5.00
2017-12-13T17:53:05.973Z,5.00
2017-12-13T17:55:35.883Z,5.00
2017-12-13T17:58:05.372Z,5.00
2017-12-13T18:00:35.219Z,5.00
2017-12-13T18:03:04.069Z,5.00
2017-12-13T18:05:34.329Z,5.00
2017-12-13T18:08:03.504Z,5.00
2017-12-13T18:10:33.812Z,5.10
2017-12-13T18:13:04.328Z,5.10
2017-12-13T18:15:34.586Z,5.10
2017-12-13T18:18:04.104Z,5.10
2017-12-13T18:20:33.611Z,5.10
2017-12-13T18:23:02.768Z,5.10
2017-12-13T18:25:32.270Z,5.10
2017-12-13T18:28:01.752Z,5.10
2017-12-13T18:30:31.691Z,5.10
2017-12-13T18:33:01.496Z,5.10
2017-12-13T18:35:30.728Z,5.10
2017-12-13T18:38:00.214Z,5.10
2017-12-13T18:40:30.005Z,5.20
2017-12-13T18:42:59.494Z,5.20
2017-12-13T18:45:29.751Z,5.20
2017-12-13T18:47:59.216Z,5.20
2017-12-13T18:50:29.493Z,5.30
2017-12-13T18:52:58.981Z,5.20
2017-12-13T18:55:28.137Z,5.30
2017-12-13T18:57:58.400Z,5.30
2017-12-13T19:00:31.214Z,5.30
2017-12-13T19:03:00.521Z,5.40
2017-12-13T19:05:29.672Z,5.40
2017-12-13T19:07:59.172Z,5.40
2017-12-13T19:10:38.271Z,5.40
2017-12-13T19:13:08.550Z,5.50
2017-12-13T19:15:37.734Z,5.50
2017-12-13T19:18:06.877Z,5.50
2017-12-13T19:20:37.504Z,5.60
2017-12-13T19:23:07.121Z,5.60
2017-12-13T19:25:37.397Z,5.70
2017-12-13T19:28:06.549Z,5.70
2017-12-13T19:30:35.699Z,5.70
2017-12-13T19:33:04.880Z,5.80
2017-12-13T19:35:33.729Z,5.80
2017-12-13T19:38:03.629Z,5.90
2017-12-13T19:40:39.058Z,5.90
2017-12-13T19:43:11.145Z,5.90
2017-12-13T19:45:40.703Z,5.90
2017-12-13T19:48:10.285Z,5.90
2017-12-13T19:50:39.761Z,5.90
2017-12-13T19:53:09.658Z,5.90
2017-12-13T19:55:40.112Z,6.00
2017-12-13T19:58:09.636Z,5.90
2017-12-13T20:00:40.052Z,6.00
2017-12-13T20:03:16.040Z,6.10
2017-12-13T21:24:44.913Z,6.10
2017-12-13T21:27:14.391Z,6.30
2017-12-13T21:29:44.144Z,6.30
2017-12-13T21:32:15.042Z,6.40
2017-12-13T21:34:44.576Z,6.40
2017-12-13T21:37:14.831Z,6.40
2017-12-13T21:39:44.314Z,6.30
2017-12-13T21:42:13.797Z,6.30
2017-12-13T21:44:44.263Z,6.20
2017-12-13T21:47:13.475Z,6.20
2017-12-13T21:49:42.949Z,6.20
2017-12-13T21:52:12.472Z,6.10
2017-12-13T21:54:41.949Z,6.00
2017-12-13T21:57:11.428Z,6.00
2017-12-13T21:59:42.056Z,6.00
2017-12-13T22:02:12.107Z,5.90
2017-12-13T22:04:41.888Z,5.80
2017-12-13T22:07:12.152Z,5.70
2017-12-13T22:09:41.641Z,5.70
2017-12-13T22:12:11.541Z,5.70
2017-12-13T22:14:41.013Z,5.70
2017-12-13T22:17:10.495Z,5.70
2017-12-13T22:19:39.983Z,5.60
2017-12-13T22:22:09.467Z,5.60
2017-12-13T22:24:38.940Z,5.70
2017-12-13T22:27:09.205Z,5.60
2017-12-13T22:29:38.672Z,5.60
2017-12-13T22:32:08.152Z,5.60
2017-12-13T22:34:37.928Z,5.50
2017-12-13T22:37:07.118Z,5.40
2017-12-13T22:39:36.589Z,5.40
2017-12-13T22:42:06.370Z,5.30
2017-12-13T22:44:36.621Z,5.20
2017-12-13T22:47:06.118Z,5.20
2017-12-13T22:49:36.118Z,5.10
2017-12-13T22:52:06.744Z,5.10
2017-12-13T22:54:36.661Z,5.00
2017-12-13T22:57:07.375Z,5.00
2017-12-13T22:59:38.413Z,4.90
2017-12-13T23:02:08.242Z,4.90
2017-12-13T23:04:38.718Z,4.80
2017-12-13T23:07:08.226Z,4.80
2017-12-13T23:09:37.709Z,4.80
2017-12-13T23:12:07.200Z,4.70
2017-12-13T23:14:36.700Z,4.70
2017-12-13T23:17:05.516Z,4.70
2017-12-13T23:19:35.023Z,4.60
2017-12-13T23:22:04.568Z,4.50
2017-12-13T23:24:34.810Z,4.50
2017-12-13T23:27:03.965Z,4.50
2017-12-13T23:29:33.616Z,4.50
2017-12-13T23:32:02.790Z,4.40
2017-12-13T23:34:32.289Z,4.40
2017-12-13T23:37:01.753Z,4.30
2017-12-13T23:39:31.241Z,4.30
2017-12-13T23:42:01.012Z,4.20
2017-12-13T23:44:31.266Z,4.20
2017-12-13T23:47:00.432Z,4.20
2017-12-13T23:49:30.744Z,4.20
2017-12-13T23:52:00.207Z,4.20
2017-12-13T23:54:29.700Z,4.20
2017-12-13T23:56:59.520Z,4.20
2017-12-13T23:59:28.988Z,4.20
